Sartell, MN (56377)

10:10 AM CST on March 05, 2015 (GMT -0600)
West Oakes | Change Station
CLOSE
Current Station
Personal Weather Station
Location: Saint Cloud, MN
Elevation: 1043 ft
Nearby Weather Stations

Elev 1043 ft 45.59 °N, 94.23 °W | Updated 12 minutes ago

Partly Cloudy
Partly Cloudy
2.5 °F
Feels Like -5 °F
N
3.7
Wind Variable Wind from West

Today
High -- | Low -- °F
--% Chance of Precip.
Yesterday
High -- | Low -- °F
Precip. -- in
6:48 AM 6:08 PM
Full, 100% visible
Pressure 30.59 in
Visibility 10.0 miles
Clouds Clear
Windchill -5 °F
Dew Point -5 °F
Humidity 69%
Rainfall in
Snow Depth Not available.
UV 3 out of 12
Pollen .40 out of 12
Air Quality Not available.
Flu Activity Not available.
METAR KSTC 051553Z 20005KT 10SM CLR M18/M22 A3047 RMK AO2 SLP357 T11781217

More Conditions Fewer Conditions

Pressure 30.59 in
Visibility 10.0 miles
Clouds Clear
Windchill -5 °F
Dew Point -5 °F
Humidity 69%
Rainfall in
Snow Depth Not available.
UV 3 out of 12
Pollen .40 out of 12
Air Quality Not available.
Flu Activity Not available.
METAR KSTC 051553Z 20005KT 10SM CLR M18/M22 A3047 RMK AO2 SLP357 T11781217

More Conditions Fewer Conditions

10-Day Weather Forecast

Almanac

Astronomy

Mar. 05, 2015 Rise Set
Actual Time
Civil Twilight
Nautical Twilight
Astronomical Twilight
Moon
Length of Visible Light
Length of Day
Tomorrow will be .
, % of the Moon is Illuminated

Today's Extremes

State Highs State Lows

Community

WunderPhotos

Upload Photos

1,802,841 photos uploaded!

WunderBlogs® & News

Nearby

Air Quality

  Air Quality AQ Index Pollutant
Not available.

Snow Depth

Station Depth Elevation

Earthquake Activity

City Distance Mag. Time & Date
Minimum magnitude displayed is 2.5.

Coastal Water Temperatures

Place Temperature

Nearby Weather Stations